sensor_id;sensor_type;location;lat;lon;timestamp;P1;durP1;ratioP1;P2;durP2;ratioP2
27979;SDS011;15315;50.836;4.430;2024-02-15T00:05:40;19.77;;;5.43;;
27979;SDS011;15315;50.836;4.430;2024-02-15T00:15:43;20.45;;;4.57;;
27979;SDS011;15315;50.836;4.430;2024-02-15T00:25:45;15.15;;;5.15;;
27979;SDS011;15315;50.836;4.430;2024-02-15T00:35:46;14.90;;;3.95;;
27979;SDS011;15315;50.836;4.430;2024-02-15T00:45:46;18.35;;;3.88;;
27979;SDS011;15315;50.836;4.430;2024-02-15T00:55:46;17.95;;;4.13;;
27979;SDS011;15315;50.836;4.430;2024-02-15T01:05:47;16.58;;;3.72;;
27979;SDS011;15315;50.836;4.430;2024-02-15T01:15:47;19.98;;;3.00;;
27979;SDS011;15315;50.836;4.430;2024-02-15T01:25:49;15.07;;;3.10;;
27979;SDS011;15315;50.836;4.430;2024-02-15T01:35:49;8.80;;;2.20;;
27979;SDS011;15315;50.836;4.430;2024-02-15T01:45:50;10.77;;;2.28;;
27979;SDS011;15315;50.836;4.430;2024-02-15T01:55:52;14.48;;;2.50;;
27979;SDS011;15315;50.836;4.430;2024-02-15T02:05:54;11.10;;;2.20;;
27979;SDS011;15315;50.836;4.430;2024-02-15T02:15:56;9.02;;;2.22;;
27979;SDS011;15315;50.836;4.430;2024-02-15T02:25:57;14.60;;;2.67;;
27979;SDS011;15315;50.836;4.430;2024-02-15T02:35:58;13.98;;;2.42;;
27979;SDS011;15315;50.836;4.430;2024-02-15T02:45:59;8.77;;;2.25;;
27979;SDS011;15315;50.836;4.430;2024-02-15T02:55:59;6.10;;;2.17;;
27979;SDS011;15315;50.836;4.430;2024-02-15T03:06:00;11.52;;;2.20;;
27979;SDS011;15315;50.836;4.430;2024-02-15T03:16:01;5.30;;;2.20;;
27979;SDS011;15315;50.836;4.430;2024-02-15T03:26:02;7.97;;;2.13;;
27979;SDS011;15315;50.836;4.430;2024-02-15T03:36:04;15.05;;;2.45;;
27979;SDS011;15315;50.836;4.430;2024-02-15T03:46:05;6.35;;;2.10;;
27979;SDS011;15315;50.836;4.430;2024-02-15T03:56:07;6.78;;;2.25;;
27979;SDS011;15315;50.836;4.430;2024-02-15T04:06:08;7.03;;;1.80;;
27979;SDS011;15315;50.836;4.430;2024-02-15T04:16:12;13.63;;;2.83;;
27979;SDS011;15315;50.836;4.430;2024-02-15T04:26:14;17.63;;;2.97;;
27979;SDS011;15315;50.836;4.430;2024-02-15T04:36:15;6.75;;;2.20;;
27979;SDS011;15315;50.836;4.430;2024-02-15T04:46:23;17.00;;;3.65;;
27979;SDS011;15315;50.836;4.430;2024-02-15T04:56:24;8.77;;;2.10;;
27979;SDS011;15315;50.836;4.430;2024-02-15T05:06:25;9.25;;;2.25;;
27979;SDS011;15315;50.836;4.430;2024-02-15T05:26:31;4.55;;;1.88;;
27979;SDS011;15315;50.836;4.430;2024-02-15T05:36:31;9.90;;;2.25;;
27979;SDS011;15315;50.836;4.430;2024-02-15T05:46:32;12.77;;;2.30;;
27979;SDS011;15315;50.836;4.430;2024-02-15T05:56:37;4.72;;;1.70;;
27979;SDS011;15315;50.836;4.430;2024-02-15T06:06:37;8.90;;;1.65;;
27979;SDS011;15315;50.836;4.430;2024-02-15T06:16:43;6.78;;;1.70;;
27979;SDS011;15315;50.836;4.430;2024-02-15T06:26:44;5.93;;;1.58;;
27979;SDS011;15315;50.836;4.430;2024-02-15T06:36:45;6.53;;;1.80;;
27979;SDS011;15315;50.836;4.430;2024-02-15T06:47:14;9.35;;;2.20;;
27979;SDS011;15315;50.836;4.430;2024-02-15T06:57:17;3.28;;;1.40;;
27979;SDS011;15315;50.836;4.430;2024-02-15T07:07:18;6.25;;;2.28;;
27979;SDS011;15315;50.836;4.430;2024-02-15T07:17:18;5.80;;;1.80;;
27979;SDS011;15315;50.836;4.430;2024-02-15T07:27:19;10.00;;;2.60;;
27979;SDS011;15315;50.836;4.430;2024-02-15T07:37:22;7.32;;;2.10;;
27979;SDS011;15315;50.836;4.430;2024-02-15T07:47:26;16.70;;;3.30;;
27979;SDS011;15315;50.836;4.430;2024-02-15T07:57:26;12.77;;;1.95;;
27979;SDS011;15315;50.836;4.430;2024-02-15T08:07:27;10.18;;;1.90;;
27979;SDS011;15315;50.836;4.430;2024-02-15T08:17:31;5.07;;;1.30;;
27979;SDS011;15315;50.836;4.430;2024-02-15T08:27:32;9.82;;;1.88;;
27979;SDS011;15315;50.836;4.430;2024-02-15T08:37:37;9.38;;;2.05;;
27979;SDS011;15315;50.836;4.430;2024-02-15T08:47:41;9.05;;;2.38;;
27979;SDS011;15315;50.836;4.430;2024-02-15T08:57:43;5.05;;;1.80;;
27979;SDS011;15315;50.836;4.430;2024-02-15T09:07:46;7.50;;;1.70;;
27979;SDS011;15315;50.836;4.430;2024-02-15T09:27:51;5.03;;;1.60;;
27979;SDS011;15315;50.836;4.430;2024-02-15T09:37:51;5.67;;;1.60;;
27979;SDS011;15315;50.836;4.430;2024-02-15T09:47:55;4.00;;;1.40;;
27979;SDS011;15315;50.836;4.430;2024-02-15T09:58:05;7.90;;;1.65;;
27979;SDS011;15315;50.836;4.430;2024-02-15T10:08:06;7.78;;;1.70;;
27979;SDS011;15315;50.836;4.430;2024-02-15T10:18:08;8.25;;;1.30;;
27979;SDS011;15315;50.836;4.430;2024-02-15T10:28:11;8.48;;;1.85;;
27979;SDS011;15315;50.836;4.430;2024-02-15T10:38:12;6.57;;;1.58;;
27979;SDS011;15315;50.836;4.430;2024-02-15T10:48:13;10.20;;;2.03;;
27979;SDS011;15315;50.836;4.430;2024-02-15T10:58:13;10.07;;;2.40;;
27979;SDS011;15315;50.836;4.430;2024-02-15T11:08:19;9.57;;;2.13;;
27979;SDS011;15315;50.836;4.430;2024-02-15T11:19:02;6.63;;;1.57;;
27979;SDS011;15315;50.836;4.430;2024-02-15T11:28:52;4.32;;;1.40;;
27979;SDS011;15315;50.836;4.430;2024-02-15T11:38:54;4.88;;;1.65;;
27979;SDS011;15315;50.836;4.430;2024-02-15T11:48:54;4.40;;;1.30;;
27979;SDS011;15315;50.836;4.430;2024-02-15T11:59:02;4.68;;;1.77;;
27979;SDS011;15315;50.836;4.430;2024-02-15T12:09:08;7.75;;;1.65;;
27979;SDS011;15315;50.836;4.430;2024-02-15T12:19:28;6.55;;;1.83;;
27979;SDS011;15315;50.836;4.430;2024-02-15T12:29:28;6.53;;;1.80;;
27979;SDS011;15315;50.836;4.430;2024-02-15T12:39:29;6.72;;;1.30;;
27979;SDS011;15315;50.836;4.430;2024-02-15T12:49:31;6.35;;;2.15;;
27979;SDS011;15315;50.836;4.430;2024-02-15T12:59:32;7.70;;;1.58;;
27979;SDS011;15315;50.836;4.430;2024-02-15T13:09:32;3.85;;;1.30;;
27979;SDS011;15315;50.836;4.430;2024-02-15T13:19:33;3.90;;;1.20;;
27979;SDS011;15315;50.836;4.430;2024-02-15T13:29:36;7.47;;;1.35;;
27979;SDS011;15315;50.836;4.430;2024-02-15T13:39:36;5.40;;;1.27;;
27979;SDS011;15315;50.836;4.430;2024-02-15T13:49:38;6.20;;;1.58;;
27979;SDS011;15315;50.836;4.430;2024-02-15T13:59:39;8.25;;;1.20;;
27979;SDS011;15315;50.836;4.430;2024-02-15T14:09:39;4.75;;;1.65;;
27979;SDS011;15315;50.836;4.430;2024-02-15T14:19:39;2.38;;;1.17;;
27979;SDS011;15315;50.836;4.430;2024-02-15T14:29:40;4.30;;;1.27;;
27979;SDS011;15315;50.836;4.430;2024-02-15T14:39:44;2.58;;;1.00;;
27979;SDS011;15315;50.836;4.430;2024-02-15T14:49:45;4.72;;;1.40;;
27979;SDS011;15315;50.836;4.430;2024-02-15T14:59:45;4.50;;;1.13;;
27979;SDS011;15315;50.836;4.430;2024-02-15T15:09:45;6.47;;;1.77;;
27979;SDS011;15315;50.836;4.430;2024-02-15T15:20:18;2.25;;;1.33;;
27979;SDS011;15315;50.836;4.430;2024-02-15T15:30:20;13.18;;;1.30;;
27979;SDS011;15315;50.836;4.430;2024-02-15T15:40:22;4.45;;;1.38;;
27979;SDS011;15315;50.836;4.430;2024-02-15T15:50:22;3.83;;;1.08;;
27979;SDS011;15315;50.836;4.430;2024-02-15T16:00:22;2.67;;;1.27;;
27979;SDS011;15315;50.836;4.430;2024-02-15T16:10:23;4.38;;;1.20;;
27979;SDS011;15315;50.836;4.430;2024-02-15T16:20:25;5.60;;;2.03;;
27979;SDS011;15315;50.836;4.430;2024-02-15T16:30:26;6.65;;;2.40;;
27979;SDS011;15315;50.836;4.430;2024-02-15T16:40:26;5.35;;;2.25;;
27979;SDS011;15315;50.836;4.430;2024-02-15T16:50:28;5.93;;;1.60;;
27979;SDS011;15315;50.836;4.430;2024-02-15T17:00:29;8.77;;;1.67;;
27979;SDS011;15315;50.836;4.430;2024-02-15T17:10:30;9.02;;;1.70;;
27979;SDS011;15315;50.836;4.430;2024-02-15T17:20:30;7.55;;;2.45;;
27979;SDS011;15315;50.836;4.430;2024-02-15T17:30:31;5.40;;;1.92;;
27979;SDS011;15315;50.836;4.430;2024-02-15T17:40:31;6.43;;;1.85;;
27979;SDS011;15315;50.836;4.430;2024-02-15T17:50:32;4.22;;;1.65;;
27979;SDS011;15315;50.836;4.430;2024-02-15T18:00:32;5.43;;;1.88;;
27979;SDS011;15315;50.836;4.430;2024-02-15T18:10:34;5.60;;;2.35;;
27979;SDS011;15315;50.836;4.430;2024-02-15T18:20:34;9.30;;;2.83;;
27979;SDS011;15315;50.836;4.430;2024-02-15T18:30:35;6.63;;;2.25;;
27979;SDS011;15315;50.836;4.430;2024-02-15T18:40:42;7.68;;;2.53;;
27979;SDS011;15315;50.836;4.430;2024-02-15T18:50:43;7.10;;;2.10;;
27979;SDS011;15315;50.836;4.430;2024-02-15T19:00:44;5.13;;;2.03;;
27979;SDS011;15315;50.836;4.430;2024-02-15T19:10:46;3.95;;;1.95;;
27979;SDS011;15315;50.836;4.430;2024-02-15T19:20:47;5.72;;;1.98;;
27979;SDS011;15315;50.836;4.430;2024-02-15T19:30:48;3.58;;;2.05;;
27979;SDS011;15315;50.836;4.430;2024-02-15T19:40:49;6.22;;;2.03;;
27979;SDS011;15315;50.836;4.430;2024-02-15T19:50:49;4.55;;;2.35;;
27979;SDS011;15315;50.836;4.430;2024-02-15T20:00:49;6.07;;;2.70;;
27979;SDS011;15315;50.836;4.430;2024-02-15T20:10:51;7.28;;;2.13;;
27979;SDS011;15315;50.836;4.430;2024-02-15T20:20:55;4.38;;;2.17;;
27979;SDS011;15315;50.836;4.430;2024-02-15T20:30:56;7.55;;;2.40;;
27979;SDS011;15315;50.836;4.430;2024-02-15T20:40:59;6.05;;;1.88;;
27979;SDS011;15315;50.836;4.430;2024-02-15T20:51:02;9.65;;;2.85;;
27979;SDS011;15315;50.836;4.430;2024-02-15T21:01:03;5.82;;;2.25;;
27979;SDS011;15315;50.836;4.430;2024-02-15T21:11:03;5.32;;;2.53;;
27979;SDS011;15315;50.836;4.430;2024-02-15T21:21:04;5.32;;;2.10;;
27979;SDS011;15315;50.836;4.430;2024-02-15T21:41:14;4.70;;;2.50;;
27979;SDS011;15315;50.836;4.430;2024-02-15T21:51:15;4.97;;;2.43;;
27979;SDS011;15315;50.836;4.430;2024-02-15T22:01:16;3.90;;;2.20;;
27979;SDS011;15315;50.836;4.430;2024-02-15T22:11:16;4.40;;;2.35;;
27979;SDS011;15315;50.836;4.430;2024-02-15T22:21:17;6.57;;;2.55;;
27979;SDS011;15315;50.836;4.430;2024-02-15T22:31:18;7.55;;;2.78;;
27979;SDS011;15315;50.836;4.430;2024-02-15T22:41:19;4.35;;;2.33;;
27979;SDS011;15315;50.836;4.430;2024-02-15T22:51:20;7.95;;;2.50;;
27979;SDS011;15315;50.836;4.430;2024-02-15T23:01:22;6.75;;;2.40;;
27979;SDS011;15315;50.836;4.430;2024-02-15T23:11:26;4.53;;;2.25;;
27979;SDS011;15315;50.836;4.430;2024-02-15T23:21:26;7.82;;;3.15;;
27979;SDS011;15315;50.836;4.430;2024-02-15T23:31:27;9.65;;;2.33;;
27979;SDS011;15315;50.836;4.430;2024-02-15T23:41:27;4.97;;;2.42;;
27979;SDS011;15315;50.836;4.430;2024-02-15T23:51:27;6.65;;;2.17;;
